Time;durP1;ratioP1;P1;durP2;ratioP2;P2;SDS_P1;SDS_P2;PMS_P1;PMS_P2;Temp;Humidity;BMP_temperature;BMP_pressure;BME280_temperature;BME280_humidity;BME280_pressure;Samples;Min_cycle;Max_cycle;Signal;HPM_P1;HPM_P2
2022/01/27 00:00:04;;;;;;;;;;;;;;;-2.19;100.00;96964.03;1036930;28;20028;-71
2022/01/27 00:00:43;;;;;;;;;;;;;;;-2.16;100.00;96961.16;1035324;28;19921;-71
2022/01/27 00:01:42;;;;;;;;;;;;;;;-2.17;100.00;96962.13;1037436;28;19922;-71
2022/01/27 00:02:26;;;;;;;;;;;;;;;-2.23;100.00;96957.59;1034701;28;19929;-70
2022/01/27 00:03:35;;;;;;;;;;;;;;;-2.24;100.00;96950.84;1035411;28;19937;-72
2022/01/27 00:04:23;;;;;;;;;;;;;;;-2.19;100.00;96953.75;1039624;28;20001;-72
2022/01/27 00:06:05;;;;;;;;;;;;;;;-2.28;100.00;96954.69;1018880;29;19922;-71
2022/01/27 00:06:37;;;;;;;;;;;;;;;-2.27;100.00;96951.16;1036743;28;19905;-71
2022/01/27 00:07:08;;;;;;;;;;;;;;;-2.27;100.00;96953.72;1034975;28;19909;-70
2022/01/27 00:07:38;;;;;;;;;;;;;;;-2.30;100.00;96948.09;1035223;28;19917;-71
2022/01/27 00:08:13;;;;;;;;;;;;;;;-2.29;100.00;96958.19;1027854;28;20057;-71
2022/01/27 00:08:51;;;;;;;;;;;;;;;-2.32;100.00;96950.78;1019104;29;20014;-71
2022/01/27 00:09:37;;;;;;;;;;;;;;;-2.32;100.00;96953.34;1017415;29;19922;-71
2022/01/27 00:10:29;;;;;;;;;;;;;;;-2.28;100.00;96957.25;1025449;28;19922;-71
2022/01/27 00:11:07;;;;;;;;;;;;;;;-2.27;100.00;96956.28;1036439;28;20571;-71
2022/01/27 00:11:38;;;;;;;;;;;;;;;-2.26;100.00;96952.75;1037769;28;20462;-71
2022/01/27 00:12:09;;;;;;;;;;;;;;;-2.25;100.00;96954.34;1035309;28;19963;-71
2022/01/27 00:12:42;;;;;;;;;;;;;;;-2.23;100.00;96956.78;1030782;28;19972;-71
2022/01/27 00:13:16;;;;;;;;;;;;;;;-2.22;100.00;96958.41;1033884;28;19955;-70
2022/01/27 00:13:49;;;;;;;;;;;;;;;-2.22;100.00;96960.97;1031733;28;19913;-71
2022/01/27 00:14:21;;;;;;;;;;;;;;;-2.20;100.00;96957.28;1036636;28;19996;-72
2022/01/27 00:15:07;;;;;;;;;;;;;;;-2.21;100.00;96960.84;1039352;28;19971;-73
2022/01/27 00:15:39;;;;;;;;;;;;;;;-2.21;100.00;96955.69;1035103;28;19913;-71
2022/01/27 00:16:15;;;;;;;;;;;;;;;-2.18;100.00;96947.69;1030832;28;20011;-71
2022/01/27 00:16:55;;;;;;;;;;;;;;;-2.20;100.00;96948.78;1025362;28;20424;-71
2022/01/27 00:17:30;;;;;;;;;;;;;;;-2.22;100.00;96942.97;1031506;28;19917;-71
2022/01/27 00:18:07;;;;;;;;;;;;;;;-2.22;100.00;96948.91;1029592;28;20395;-72
2022/01/27 00:18:38;;;;;;;;;;;;;;;-2.25;100.00;96948.41;1033407;28;20016;-72
2022/01/27 00:19:08;;;;;;;;;;;;;;;-2.17;100.00;96944.13;1031453;28;19918;-71
2022/01/27 00:19:38;;;;;;;;;;;;;;;-2.17;100.00;96941.56;1028317;28;19950;-70
2022/01/27 00:20:09;;;;;;;;;;;;;;;-2.19;100.00;96946.03;1027155;28;19921;-71
2022/01/27 00:20:39;;;;;;;;;;;;;;;-2.16;100.00;96948.31;1019470;29;19918;-71
2022/01/27 00:21:10;;;;;;;;;;;;;;;-2.16;100.00;96950.09;1023281;29;20343;-71
2022/01/27 00:21:40;;;;;;;;;;;;;;;-2.12;100.00;96941.09;1023458;28;19919;-72
2022/01/27 00:22:10;;;;;;;;;;;;;;;-2.11;100.00;96947.03;1027105;28;19922;-71
2022/01/27 00:22:42;;;;;;;;;;;;;;;-2.18;100.00;96952.81;1034997;28;19947;-72
2022/01/27 00:23:12;;;;;;;;;;;;;;;-2.17;100.00;96959.56;1037398;28;19917;-71
2022/01/27 00:23:45;;;;;;;;;;;;;;;-2.15;100.00;96949.13;1035436;28;19917;-71
2022/01/27 00:24:15;;;;;;;;;;;;;;;-2.11;100.00;96957.31;1035309;28;19999;-71
2022/01/27 00:24:46;;;;;;;;;;;;;;;-2.16;100.00;96957.78;1035524;28;20611;-71
2022/01/27 00:25:16;;;;;;;;;;;;;;;-2.22;100.00;96961.78;1036201;28;19984;-73
2022/01/27 00:25:46;;;;;;;;;;;;;;;-2.23;100.00;96957.59;1033891;28;20020;-72
2022/01/27 00:26:16;;;;;;;;;;;;;;;-2.22;100.00;96959.19;1027195;28;19914;-72
2022/01/27 00:26:47;;;;;;;;;;;;;;;-2.20;100.00;96962.44;1027209;28;19914;-73
2022/01/27 00:27:17;;;;;;;;;;;;;;;-2.23;100.00;96960.16;1031076;28;20326;-73
2022/01/27 00:27:47;;;;;;;;;;;;;;;-2.21;100.00;96958.25;1035477;28;19925;-72
2022/01/27 00:28:18;;;;;;;;;;;;;;;-2.18;100.00;96952.81;1039311;28;20445;-72
2022/01/27 00:28:48;;;;;;;;;;;;;;;-2.20;100.00;96954.72;1039800;28;20047;-71
2022/01/27 00:29:18;;;;;;;;;;;;;;;-2.18;100.00;96960.53;1039417;28;19917;-71
2022/01/27 00:29:49;;;;;;;;;;;;;;;-2.19;100.00;96948.63;1039382;28;19928;-71
2022/01/27 00:30:19;;;;;;;;;;;;;;;-2.15;100.00;96952.50;1032060;28;19957;-72
2022/01/27 00:30:49;;;;;;;;;;;;;;;-2.16;100.00;96950.88;1031079;28;19914;-71
2022/01/27 00:31:20;;;;;;;;;;;;;;;-2.16;100.00;96952.66;1031178;28;19930;-72
2022/01/27 00:31:50;;;;;;;;;;;;;;;-2.19;100.00;96951.19;1032677;28;19921;-70
2022/01/27 00:32:21;;;;;;;;;;;;;;;-2.17;100.00;96957.00;1031175;28;19914;-70
2022/01/27 00:32:51;;;;;;;;;;;;;;;-2.13;100.00;96957.50;1026149;28;20408;-71
2022/01/27 00:33:22;;;;;;;;;;;;;;;-2.11;100.00;96954.75;1023309;29;20214;-71
2022/01/27 00:33:52;;;;;;;;;;;;;;;-2.10;100.00;96957.19;1030277;28;19922;-72
2022/01/27 00:34:22;;;;;;;;;;;;;;;-2.15;100.00;96962.81;1028602;28;19918;-71
2022/01/27 00:34:53;;;;;;;;;;;;;;;-2.15;100.00;96959.41;1018875;29;19958;-72
2022/01/27 00:35:23;;;;;;;;;;;;;;;-2.13;100.00;96963.44;1027283;28;19968;-72
2022/01/27 00:35:53;;;;;;;;;;;;;;;-2.14;100.00;96956.69;1023090;28;20001;-72
2022/01/27 00:36:24;;;;;;;;;;;;;;;-2.09;100.00;96963.13;1023209;29;19918;-72
2022/01/27 00:36:54;;;;;;;;;;;;;;;-2.09;100.00;96965.72;1026881;28;20590;-72
2022/01/27 00:37:24;;;;;;;;;;;;;;;-2.13;100.00;96967.78;1031065;28;20339;-71
2022/01/27 00:37:55;;;;;;;;;;;;;;;-2.12;100.00;96959.09;1039039;28;19925;-72
2022/01/27 00:38:25;;;;;;;;;;;;;;;-2.13;100.00;96963.44;1031203;28;19937;-72
2022/01/27 00:38:56;;;;;;;;;;;;;;;-2.13;100.00;96960.88;1018946;29;20328;-71
2022/01/27 00:39:26;;;;;;;;;;;;;;;-2.16;100.00;96963.75;1024782;28;20011;-73
2022/01/27 00:39:56;;;;;;;;;;;;;;;-2.15;100.00;96960.22;1035031;28;20170;-72
2022/01/27 00:40:27;;;;;;;;;;;;;;;-2.16;100.00;96961.16;1031228;28;19961;-72
2022/01/27 00:40:57;;;;;;;;;;;;;;;-2.21;100.00;96962.59;1022742;29;19922;-72
2022/01/27 00:41:27;;;;;;;;;;;;;;;-2.17;100.00;96958.75;1023074;29;19926;-72
2022/01/27 00:41:58;;;;;;;;;;;;;;;-2.15;100.00;96957.66;1039327;28;19913;-72
2022/01/27 00:42:29;;;;;;;;;;;;;;;-2.18;100.00;96965.69;1035086;28;19966;-72
2022/01/27 00:43:00;;;;;;;;;;;;;;;-2.18;100.00;96959.69;1020717;29;19926;-72
2022/01/27 00:43:30;;;;;;;;;;;;;;;-2.18;100.00;96955.38;1029393;28;19925;-72
2022/01/27 00:44:01;;;;;;;;;;;;;;;-2.19;100.00;96958.91;1039406;28;19920;-73
2022/01/27 00:44:32;;;;;;;;;;;;;;;-2.18;100.00;96960.53;1040949;28;20409;-72
2022/01/27 00:45:02;;;;;;;;;;;;;;;-2.17;100.00;96956.19;1043361;28;19917;-71
2022/01/27 00:45:33;;;;;;;;;;;;;;;-2.16;100.00;96963.75;1035025;28;19963;-72
2022/01/27 00:46:10;;;;;;;;;;;;;;;-2.17;100.00;96962.13;1034792;28;19918;-72
2022/01/27 00:46:40;;;;;;;;;;;;;;;-2.20;100.00;96959.06;1033043;28;19925;-71
2022/01/27 00:47:10;;;;;;;;;;;;;;;-2.19;100.00;96969.19;1032003;28;20507;-72
2022/01/27 00:47:40;;;;;;;;;;;;;;;-2.16;100.00;96958.59;1024104;28;20005;-71
2022/01/27 00:48:14;;;;;;;;;;;;;;;-2.16;100.00;96968.88;1019118;29;19979;-71
2022/01/27 00:48:44;;;;;;;;;;;;;;;-2.11;100.00;96963.31;1030331;28;19960;-71
2022/01/27 00:49:15;;;;;;;;;;;;;;;-2.09;100.00;96973.41;1027529;28;19976;-71
2022/01/27 00:49:45;;;;;;;;;;;;;;;-2.15;100.00;96969.69;1026893;28;20683;-72
2022/01/27 00:50:18;;;;;;;;;;;;;;;-2.16;100.00;96963.75;1027142;28;20008;-71
2022/01/27 00:50:54;;;;;;;;;;;;;;;-2.14;100.00;96961.84;1027428;28;19924;-72
2022/01/27 00:51:28;;;;;;;;;;;;;;;-2.11;100.00;96971.00;1030897;28;20008;-71
2022/01/27 00:52:01;;;;;;;;;;;;;;;-2.09;100.00;96973.41;1031367;28;20016;-71
2022/01/27 00:52:39;;;;;;;;;;;;;;;-2.13;100.00;96973.72;1028615;28;19922;-71
2022/01/27 00:54:16;;;;;;;;;;;;;;;-2.11;100.00;96972.75;1032445;28;20500;-70
2022/01/27 00:54:22;;;;;;;;;;;;;;;-2.06;100.00;96976.50;1031792;28;20478;-71
2022/01/27 00:54:53;;;;;;;;;;;;;;;-2.08;100.00;96969.88;1027035;28;20006;-71
2022/01/27 00:55:26;;;;;;;;;;;;;;;-2.08;100.00;96969.88;1025019;28;19929;-70
2022/01/27 00:56:00;;;;;;;;;;;;;;;-2.11;100.00;96970.19;1027076;28;19918;-72
2022/01/27 00:57:10;;;;;;;;;;;;;;;-2.07;100.00;96971.50;1024412;28;19918;-71
2022/01/27 00:58:54;;;;;;;;;;;;;;;-2.11;100.00;96970.19;1020910;29;19915;-73
2022/01/27 01:00:01;;;;;;;;;;;;;;;-2.06;100.00;96967.97;1020516;29;19966;-72
2022/01/27 01:00:36;;;;;;;;;;;;;;;-2.06;100.00;96968.78;1025365;28;20514;-72
2022/01/27 01:01:10;;;;;;;;;;;;;;;-2.06;100.00;96973.91;1031610;28;19926;-72
2022/01/27 01:01:45;;;;;;;;;;;;;;;-2.05;100.00;96964.44;1032740;28;20304;-71
2022/01/27 01:02:35;;;;;;;;;;;;;;;-2.07;100.00;96966.38;1026985;28;19968;-71
2022/01/27 01:03:29;;;;;;;;;;;;;;;-2.13;100.00;96962.63;1022502;28;20054;-71
2022/01/27 01:04:02;;;;;;;;;;;;;;;-2.14;100.00;96961.84;1030916;28;19917;-71
2022/01/27 01:04:36;;;;;;;;;;;;;;;-2.18;100.00;96957.13;1029569;28;19997;-71
2022/01/27 01:05:32;;;;;;;;;;;;;;;-2.15;100.00;96964.53;1035064;28;19956;-71
2022/01/27 01:06:33;;;;;;;;;;;;;;;-2.21;100.00;96960.84;1026376;28;19918;-71
2022/01/27 01:06:53;;;;;;;;;;;;;;;-2.20;100.00;96961.63;1026420;28;20022;-73
2022/01/27 01:07:24;;;;;;;;;;;;;;;-2.19;100.00;96958.09;1029326;28;19968;-70
2022/01/27 01:07:58;;;;;;;;;;;;;;;-2.18;100.00;96957.97;1031201;28;20415;-71
2022/01/27 01:11:27;;;;;;;;;;;;;;;-2.20;100.00;96952.16;1035345;28;20442;-72
2022/01/27 01:15:14;;;;;;;;;;;;;;;-2.21;100.00;96939.47;1031079;28;19916;-71
2022/01/27 01:15:46;;;;;;;;;;;;;;;-2.22;100.00;96938.63;1031311;28;19910;-71
2022/01/27 01:16:42;;;;;;;;;;;;;;;-2.20;100.00;96939.31;1031232;28;19921;-71
2022/01/27 01:29:25;;;;;;;;;;;;;;;-2.20;100.00;96926.44;1039652;28;19913;-72
2022/01/27 01:30:09;;;;;;;;;;;;;;;-2.23;100.00;96916.47;1030937;28;20016;-72
2022/01/27 01:31:14;;;;;;;;;;;;;;;-2.25;100.00;96907.28;1031093;28;19909;-71
2022/01/27 01:33:05;;;;;;;;;;;;;;;-2.23;100.00;96905.38;1029446;28;19913;-72
2022/01/27 01:33:38;;;;;;;;;;;;;;;-2.24;100.00;96904.59;1030229;28;19909;-72
2022/01/27 01:34:46;;;;;;;;;;;;;;;-2.18;100.00;96900.56;1024066;28;19923;-72
2022/01/27 01:35:18;;;;;;;;;;;;;;;-2.22;100.00;96907.78;1023329;28;19910;-71
2022/01/27 01:35:50;;;;;;;;;;;;;;;-2.24;100.00;96909.72;1028193;28;19915;-71
2022/01/27 01:36:34;;;;;;;;;;;;;;;-2.20;100.00;96908.44;1023129;29;20010;-71
2022/01/27 01:37:07;;;;;;;;;;;;;;;-2.20;100.00;96910.22;1022066;29;20380;-71
2022/01/27 01:37:40;;;;;;;;;;;;;;;-2.18;100.00;96914.25;1025111;28;20578;-72
2022/01/27 01:38:10;;;;;;;;;;;;;;;-2.20;100.00;96911.03;1032206;28;20470;-70
2022/01/27 01:38:40;;;;;;;;;;;;;;;-2.21;100.00;96912.00;1031579;28;19977;-73
2022/01/27 01:39:12;;;;;;;;;;;;;;;-2.20;100.00;96910.22;1031108;28;20001;-71
2022/01/27 01:39:42;;;;;;;;;;;;;;;-2.17;100.00;96910.72;1026691;28;20517;-71
2022/01/27 01:40:13;;;;;;;;;;;;;;;-2.15;100.00;96915.69;1027361;28;19930;-71
2022/01/27 01:40:47;;;;;;;;;;;;;;;-2.13;100.00;96911.22;1027042;28;19922;-72
2022/01/27 01:41:17;;;;;;;;;;;;;;;-2.11;100.00;96916.19;1027639;28;19925;-70
2022/01/27 01:41:48;;;;;;;;;;;;;;;-2.09;100.00;96915.09;1026900;28;20301;-72
2022/01/27 01:42:18;;;;;;;;;;;;;;;-2.11;100.00;96913.63;1027879;28;20013;-71
2022/01/27 01:42:48;;;;;;;;;;;;;;;-2.09;100.00;96917.66;1030125;28;19921;-70
2022/01/27 01:43:19;;;;;;;;;;;;;;;-2.09;100.00;96916.84;1026981;28;20291;-71
2022/01/27 01:43:49;;;;;;;;;;;;;;;-2.08;100.00;96916.69;1030870;28;19933;-71
2022/01/27 01:44:19;;;;;;;;;;;;;;;-2.08;100.00;96921.03;1026896;28;19922;-69
2022/01/27 01:44:50;;;;;;;;;;;;;;;-2.11;100.00;96923.91;1026957;28;19965;-71
2022/01/27 01:45:20;;;;;;;;;;;;;;;-2.08;100.00;96923.59;1031093;28;19937;-71
2022/01/27 01:45:50;;;;;;;;;;;;;;;-2.09;100.00;96922.78;1026942;28;20483;-71
2022/01/27 01:46:21;;;;;;;;;;;;;;;-2.13;100.00;96919.72;1029627;28;19984;-71
2022/01/27 01:46:51;;;;;;;;;;;;;;;-2.16;100.00;96921.81;1031031;28;19918;-71
2022/01/27 01:47:21;;;;;;;;;;;;;;;-2.18;100.00;96921.97;1027187;28;19918;-71
2022/01/27 01:47:52;;;;;;;;;;;;;;;-2.17;100.00;96923.56;1030531;28;19922;-71
2022/01/27 01:48:23;;;;;;;;;;;;;;;-2.16;100.00;96922.59;1030949;28;20004;-71
2022/01/27 01:48:53;;;;;;;;;;;;;;;-2.17;100.00;96926.16;1027103;28;19982;-72
2022/01/27 01:49:26;;;;;;;;;;;;;;;-2.17;100.00;96921.00;1031141;28;20013;-71
2022/01/27 01:49:56;;;;;;;;;;;;;;;-2.15;100.00;96928.53;1031180;28;19914;-72
2022/01/27 01:50:26;;;;;;;;;;;;;;;-2.15;100.00;96924.25;1035456;28;20395;-72
2022/01/27 01:50:57;;;;;;;;;;;;;;;-2.15;100.00;96925.97;1039182;28;19921;-71
2022/01/27 01:51:28;;;;;;;;;;;;;;;-2.15;100.00;96924.25;1035041;28;19926;-72
2022/01/27 01:51:59;;;;;;;;;;;;;;;-2.13;100.00;96924.88;1034905;28;19924;-72
2022/01/27 01:52:30;;;;;;;;;;;;;;;-2.13;100.00;96924.06;1038866;28;19965;-72
2022/01/27 01:53:00;;;;;;;;;;;;;;;-2.14;100.00;96928.41;1034457;28;20007;-72
2022/01/27 01:53:30;;;;;;;;;;;;;;;-2.11;100.00;96927.31;1034677;28;19914;-72
2022/01/27 01:54:01;;;;;;;;;;;;;;;-2.10;100.00;96926.34;1027397;28;19998;-71
2022/01/27 01:54:31;;;;;;;;;;;;;;;-2.11;100.00;96929.03;1029331;28;19917;-72
2022/01/27 01:55:02;;;;;;;;;;;;;;;-2.11;100.00;96931.63;1034584;28;20417;-72
2022/01/27 01:55:32;;;;;;;;;;;;;;;-2.08;100.00;96933.88;1035547;28;20008;-72
2022/01/27 01:56:04;;;;;;;;;;;;;;;-2.06;100.00;96929.41;1031411;28;19913;-73
2022/01/27 01:56:34;;;;;;;;;;;;;;;-2.07;100.00;96933.75;1027262;28;19926;-72
2022/01/27 01:57:05;;;;;;;;;;;;;;;-2.06;100.00;96934.53;1031851;28;20020;-72
2022/01/27 01:57:35;;;;;;;;;;;;;;;-2.06;100.00;96937.13;1039551;28;19921;-71
2022/01/27 01:58:05;;;;;;;;;;;;;;;-2.08;100.00;96924.41;1034934;28;20000;-71
2022/01/27 01:58:36;;;;;;;;;;;;;;;-2.08;100.00;96928.75;1027124;28;19930;-72
2022/01/27 01:59:06;;;;;;;;;;;;;;;-2.12;100.00;96930.81;1027551;28;19918;-72
2022/01/27 01:59:37;;;;;;;;;;;;;;;-2.09;100.00;96929.72;1027395;28;19997;-72
2022/01/27 02:00:07;;;;;;;;;;;;;;;-2.10;100.00;96928.09;1039587;28;20057;-72
2022/01/27 02:00:38;;;;;;;;;;;;;;;-2.09;100.00;96927.13;1035433;28;19972;-72
2022/01/27 02:01:08;;;;;;;;;;;;;;;-2.06;100.00;96931.97;1035457;28;19921;-72
2022/01/27 02:01:38;;;;;;;;;;;;;;;-2.00;100.00;96932.16;1031333;28;19913;-72
2022/01/27 02:02:12;;;;;;;;;;;;;;;-1.99;100.00;96932.97;1027576;28;20558;-72
2022/01/27 02:02:42;;;;;;;;;;;;;;;-2.03;100.00;96926.53;1035247;28;19925;-72
2022/01/27 02:03:13;;;;;;;;;;;;;;;-1.99;100.00;96927.81;1030639;28;20008;-72
2022/01/27 02:03:44;;;;;;;;;;;;;;;-1.98;100.00;96930.25;1032153;28;19913;-72
2022/01/27 02:04:15;;;;;;;;;;;;;;;-2.01;100.00;96925.41;1031432;28;19942;-72
2022/01/27 02:04:45;;;;;;;;;;;;;;;-2.00;100.00;96928.78;1023484;28;20422;-71
2022/01/27 02:05:16;;;;;;;;;;;;;;;-1.99;100.00;96928.63;1023437;29;19914;-71
2022/01/27 02:05:51;;;;;;;;;;;;;;;-1.95;100.00;96934.25;1019833;29;19984;-72
2022/01/27 02:06:32;;;;;;;;;;;;;;;-1.98;100.00;96932.84;1024169;28;19914;-72
2022/01/27 02:07:09;;;;;;;;;;;;;;;-1.99;100.00;96928.63;1023593;29;19910;-71
2022/01/27 02:07:54;;;;;;;;;;;;;;;-2.00;100.00;96931.38;1031480;28;19973;-72
2022/01/27 02:10:03;;;;;;;;;;;;;;;-1.97;100.00;96938.78;1031523;28;20069;-72
2022/01/27 02:18:08;;;;;;;;;;;;;;;-2.14;100.00;96933.56;1039969;28;20393;-71
2022/01/27 02:18:39;;;;;;;;;;;;;;;-2.13;100.00;96924.06;1039720;28;19917;-73
2022/01/27 02:19:09;;;;;;;;;;;;;;;-2.08;100.00;96929.53;1035211;28;19979;-72
2022/01/27 02:19:39;;;;;;;;;;;;;;;-2.13;100.00;96922.28;1031329;28;19914;-73
2022/01/27 02:20:10;;;;;;;;;;;;;;;-2.10;100.00;96922.97;1027276;28;19930;-71
2022/01/27 02:20:40;;;;;;;;;;;;;;;-2.09;100.00;96922.00;1026038;28;20340;-69
2022/01/27 02:21:10;;;;;;;;;;;;;;;-2.09;100.00;96922.00;1027175;28;19933;-73
2022/01/27 02:21:42;;;;;;;;;;;;;;;-2.07;100.00;96920.09;1031575;28;19922;-71
2022/01/27 02:22:13;;;;;;;;;;;;;;;-2.10;100.00;96921.19;1027399;28;19916;-71
2022/01/27 02:22:43;;;;;;;;;;;;;;;-2.11;100.00;96918.75;1027170;28;19918;-72
2022/01/27 02:23:13;;;;;;;;;;;;;;;-2.12;100.00;96912.81;1026719;28;19918;-72
2022/01/27 02:23:44;;;;;;;;;;;;;;;-2.14;100.00;96920.69;1027285;28;20011;-72
2022/01/27 02:24:15;;;;;;;;;;;;;;;-2.14;100.00;96918.13;1027315;28;19918;-72
2022/01/27 02:24:45;;;;;;;;;;;;;;;-2.11;100.00;96913.63;1030394;28;19934;-72
2022/01/27 02:25:17;;;;;;;;;;;;;;;-2.14;100.00;96912.97;1027593;28;19978;-72
2022/01/27 02:25:47;;;;;;;;;;;;;;;-2.08;100.00;96908.16;1031504;28;20367;-71
2022/01/27 02:26:18;;;;;;;;;;;;;;;-2.11;100.00;96918.75;1031067;28;19924;-72
2022/01/27 02:26:49;;;;;;;;;;;;;;;-2.18;100.00;96916.81;1031790;28;19971;-71
2022/01/27 02:27:19;;;;;;;;;;;;;;;-2.15;100.00;96913.13;1035221;28;19914;-71
2022/01/27 02:27:53;;;;;;;;;;;;;;;-2.16;100.00;96911.53;1035333;28;20139;-70
2022/01/27 02:28:24;;;;;;;;;;;;;;;-2.15;100.00;96916.53;1028632;28;19914;-71
2022/01/27 02:28:54;;;;;;;;;;;;;;;-2.20;100.00;96911.03;1031328;28;19922;-71
2022/01/27 02:29:24;;;;;;;;;;;;;;;-2.24;100.00;96909.72;1031285;28;19954;-72
2022/01/27 02:29:55;;;;;;;;;;;;;;;-2.23;100.00;96915.66;1027366;28;19917;-72
2022/01/27 02:30:25;;;;;;;;;;;;;;;-2.18;100.00;96913.44;1031332;28;19934;-71
2022/01/27 02:30:55;;;;;;;;;;;;;;;-2.17;100.00;96905.56;1027300;28;19926;-72
2022/01/27 02:31:25;;;;;;;;;;;;;;;-2.18;100.00;96913.44;1020473;28;19927;-72
2022/01/27 02:31:56;;;;;;;;;;;;;;;-2.17;100.00;96910.72;1023392;28;19995;-71
2022/01/27 02:32:27;;;;;;;;;;;;;;;-2.17;100.00;96910.72;1023361;28;19975;-69
2022/01/27 02:32:59;;;;;;;;;;;;;;;-2.18;100.00;96914.25;1022830;28;19918;-72
2022/01/27 02:33:30;;;;;;;;;;;;;;;-2.20;100.00;96921.31;1031180;28;19918;-70
2022/01/27 02:34:01;;;;;;;;;;;;;;;-2.22;100.00;96912.94;1034297;28;19910;-71
2022/01/27 02:34:31;;;;;;;;;;;;;;;-2.18;100.00;96913.44;1034963;28;19957;-71
2022/01/27 02:35:02;;;;;;;;;;;;;;;-2.22;100.00;96910.34;1039650;28;19914;-71
2022/01/27 02:35:33;;;;;;;;;;;;;;;-2.34;100.00;96914.16;1031012;28;19952;-71
2022/01/27 02:36:03;;;;;;;;;;;;;;;-2.34;100.00;96918.50;1025356;28;20294;-71
2022/01/27 02:36:34;;;;;;;;;;;;;;;-2.34;100.00;96913.38;1025165;28;19915;-71
2022/01/27 02:37:04;;;;;;;;;;;;;;;-2.33;100.00;96915.78;1027651;28;19921;-71
2022/01/27 02:37:34;;;;;;;;;;;;;;;-2.33;100.00;96910.63;1031125;28;19922;-72
2022/01/27 02:38:05;;;;;;;;;;;;;;;-2.37;100.00;96910.13;1039488;28;19917;-72
2022/01/27 02:38:36;;;;;;;;;;;;;;;-2.43;100.00;96909.94;1031361;28;19918;-72
2022/01/27 02:39:06;;;;;;;;;;;;;;;-2.44;100.00;96913.47;1031493;28;20315;-71
2022/01/27 02:39:37;;;;;;;;;;;;;;;-2.45;100.00;96912.66;1027093;28;19914;-72
2022/01/27 02:40:07;;;;;;;;;;;;;;;-2.46;100.00;96905.09;1031287;28;19922;-72
2022/01/27 02:40:38;;;;;;;;;;;;;;;-2.45;100.00;96911.84;1027329;28;19922;-72
2022/01/27 02:41:09;;;;;;;;;;;;;;;-2.47;100.00;96909.44;1027295;28;19918;-71
2022/01/27 02:41:52;;;;;;;;;;;;;;;-2.48;100.00;96907.00;1027431;28;19968;-71
2022/01/27 02:42:34;;;;;;;;;;;;;;;-2.51;100.00;96910.69;1025265;28;19962;-73
2022/01/27 02:43:05;;;;;;;;;;;;;;;-2.53;100.00;96909.22;1030128;28;19917;-71
2022/01/27 02:43:35;;;;;;;;;;;;;;;-2.55;100.00;96911.13;1027374;28;20005;-71
2022/01/27 02:44:06;;;;;;;;;;;;;;;-2.56;100.00;96905.19;1029030;28;19926;-71
2022/01/27 02:44:45;;;;;;;;;;;;;;;-2.56;100.00;96914.66;1029507;28;19922;-71
2022/01/27 02:45:41;;;;;;;;;;;;;;;-2.61;100.00;96910.78;1028511;28;20441;-71
2022/01/27 02:46:15;;;;;;;;;;;;;;;-2.61;100.00;96912.56;1022805;29;19919;-71
2022/01/27 02:46:46;;;;;;;;;;;;;;;-2.62;100.00;96910.94;1021450;28;20320;-71
2022/01/27 02:47:16;;;;;;;;;;;;;;;-2.62;100.00;96911.75;1031273;28;19947;-72
2022/01/27 02:47:49;;;;;;;;;;;;;;;-2.65;100.00;96912.06;1019628;29;20568;-73
2022/01/27 02:48:19;;;;;;;;;;;;;;;-2.61;100.00;96915.13;1023277;28;19973;-71
2022/01/27 02:48:49;;;;;;;;;;;;;;;-2.63;100.00;96920.41;1031146;28;19952;-70
2022/01/27 02:49:20;;;;;;;;;;;;;;;-2.65;100.00;96917.19;1031504;28;19922;-72
2022/01/27 02:49:50;;;;;;;;;;;;;;;-2.63;100.00;96911.91;1019252;29;20401;-71
2022/01/27 02:50:20;;;;;;;;;;;;;;;-2.62;100.00;96908.34;1023346;29;19928;-71
2022/01/27 02:50:51;;;;;;;;;;;;;;;-2.56;100.00;96914.66;1027397;28;19933;-71
2022/01/27 02:51:21;;;;;;;;;;;;;;;-2.56;100.00;96922.38;1027363;28;19928;-71
2022/01/27 02:51:52;;;;;;;;;;;;;;;-2.56;100.00;96912.91;1031370;28;19918;-71
2022/01/27 02:52:22;;;;;;;;;;;;;;;-2.56;100.00;96912.09;1027516;28;19918;-71
2022/01/27 02:52:52;;;;;;;;;;;;;;;-2.58;100.00;96906.28;1034491;28;19952;-71
2022/01/27 02:53:22;;;;;;;;;;;;;;;-2.59;100.00;96905.50;1031488;28;19930;-71
2022/01/27 02:53:55;;;;;;;;;;;;;;;-2.59;100.00;96907.25;1023299;28;19918;-71
2022/01/27 02:54:25;;;;;;;;;;;;;;;-2.59;100.00;96904.69;1023447;29;20348;-72
2022/01/27 02:54:55;;;;;;;;;;;;;;;-2.58;100.00;96911.44;1019510;29;19919;-71
2022/01/27 02:55:25;;;;;;;;;;;;;;;-2.59;100.00;96900.34;1027957;28;19922;-71
2022/01/27 02:55:56;;;;;;;;;;;;;;;-2.58;100.00;96901.16;1035327;28;19913;-71
2022/01/27 02:56:26;;;;;;;;;;;;;;;-2.59;100.00;96896.97;1035287;28;20407;-72
2022/01/27 02:56:56;;;;;;;;;;;;;;;-2.59;100.00;96895.22;1039472;28;19917;-71
2022/01/27 02:57:27;;;;;;;;;;;;;;;-2.59;100.00;96894.41;1035351;28;19922;-72
2022/01/27 02:57:58;;;;;;;;;;;;;;;-2.61;100.00;96897.94;1027229;28;19918;-73
2022/01/27 02:58:29;;;;;;;;;;;;;;;-2.62;100.00;96890.38;1031166;28;19937;-71
2022/01/27 02:58:59;;;;;;;;;;;;;;;-2.62;100.00;96891.22;1023678;28;19906;-73
2022/01/27 02:59:29;;;;;;;;;;;;;;;-2.64;100.00;96887.97;1027325;28;19946;-71
2022/01/27 02:59:59;;;;;;;;;;;;;;;-2.63;100.00;96899.06;1026252;28;19911;-71
2022/01/27 03:00:32;;;;;;;;;;;;;;;-2.64;100.00;96890.53;1020403;29;19930;-71
2022/01/27 03:01:04;;;;;;;;;;;;;;;-2.64;100.00;96893.13;1023867;28;20137;-72
2022/01/27 03:01:34;;;;;;;;;;;;;;;-2.66;100.00;96892.44;1026332;28;19910;-71
2022/01/27 03:02:04;;;;;;;;;;;;;;;-2.66;100.00;96889.88;1026681;28;20660;-71
2022/01/27 03:02:38;;;;;;;;;;;;;;;-2.66;100.00;96884.75;1026870;28;19963;-69
2022/01/27 03:03:08;;;;;;;;;;;;;;;-2.65;100.00;96885.53;1026387;28;20504;-71
2022/01/27 03:03:38;;;;;;;;;;;;;;;-2.66;100.00;96892.44;1027142;28;19919;-71
2022/01/27 03:04:08;;;;;;;;;;;;;;;-2.67;100.00;96882.34;1026758;28;19920;-70
2022/01/27 03:04:39;;;;;;;;;;;;;;;-2.70;100.00;96882.63;1018778;29;20547;-71
2022/01/27 03:05:09;;;;;;;;;;;;;;;-2.72;100.00;96877.63;1022543;28;19950;-71
2022/01/27 03:05:39;;;;;;;;;;;;;;;-2.72;100.00;96875.06;1026805;28;19921;-72
2022/01/27 03:06:10;;;;;;;;;;;;;;;-2.73;100.00;96882.94;1030755;28;19922;-71
2022/01/27 03:06:40;;;;;;;;;;;;;;;-2.73;100.00;96880.38;1034806;28;19918;-71
2022/01/27 03:07:10;;;;;;;;;;;;;;;-2.75;100.00;96875.41;1030625;28;20057;-72
2022/01/27 03:07:41;;;;;;;;;;;;;;;-2.76;100.00;96878.91;1026805;28;19922;-72
2022/01/27 03:08:11;;;;;;;;;;;;;;;-2.77;100.00;96876.50;1026672;28;19918;-72
2022/01/27 03:08:41;;;;;;;;;;;;;;;-2.78;100.00;96874.84;1030838;28;19914;-71
2022/01/27 03:09:12;;;;;;;;;;;;;;;-2.80;100.00;96875.03;1034717;28;20789;-71
2022/01/27 03:09:42;;;;;;;;;;;;;;;-2.81;100.00;96868.28;1030904;28;20295;-71
2022/01/27 03:10:12;;;;;;;;;;;;;;;-2.82;100.00;96868.41;1022700;29;20001;-71
2022/01/27 03:10:43;;;;;;;;;;;;;;;-2.84;100.00;96866.00;1026928;28;19968;-71
2022/01/27 03:11:16;;;;;;;;;;;;;;;-2.86;100.00;96863.59;1030688;28;20489;-71
2022/01/27 03:11:59;;;;;;;;;;;;;;;-2.88;100.00;96864.72;1031559;28;19913;-71
2022/01/27 03:12:30;;;;;;;;;;;;;;;-2.89;100.00;96865.66;1030449;28;20013;-73
2022/01/27 03:13:01;;;;;;;;;;;;;;;-2.92;100.00;96858.25;1033352;28;19913;-71
2022/01/27 03:13:31;;;;;;;;;;;;;;;-2.94;100.00;96866.09;1026559;28;19906;-71
2022/01/27 03:14:02;;;;;;;;;;;;;;;-2.95;100.00;96869.63;1030908;28;20390;-72
2022/01/27 03:14:33;;;;;;;;;;;;;;;-2.97;100.00;96860.47;1020348;29;20351;-72
2022/01/27 03:15:03;;;;;;;;;;;;;;;-2.97;100.00;96868.97;1030912;28;19914;-72
2022/01/27 03:15:34;;;;;;;;;;;;;;;-3.00;100.00;96865.91;1034987;28;20012;-72
2022/01/27 03:16:06;;;;;;;;;;;;;;;-3.03;100.00;96867.00;1030803;28;19929;-72
2022/01/27 03:16:37;;;;;;;;;;;;;;;-3.03;100.00;96868.75;1026881;28;19926;-72
2022/01/27 03:17:07;;;;;;;;;;;;;;;-3.03;100.00;96863.63;1027564;28;19914;-71
2022/01/27 03:17:38;;;;;;;;;;;;;;;-3.04;100.00;96860.25;1023812;28;20479;-72
2022/01/27 03:18:09;;;;;;;;;;;;;;;-3.05;100.00;96860.38;1031468;28;19922;-71
2022/01/27 03:18:39;;;;;;;;;;;;;;;-3.04;100.00;96865.41;1035466;28;19921;-72
2022/01/27 03:19:09;;;;;;;;;;;;;;;-3.04;100.00;96865.41;1031548;28;19922;-71
2022/01/27 03:19:39;;;;;;;;;;;;;;;-3.06;100.00;96867.28;1031433;28;20018;-72
2022/01/27 03:20:10;;;;;;;;;;;;;;;-3.08;100.00;96864.09;1035588;28;19925;-71